sensor_id;sensor_type;location;lat;lon;timestamp;P1;durP1;ratioP1;P2;durP2;ratioP2
24751;SDS011;27246;52.376;4.628;2023-04-24T00:04:27;2.72;;;0.93;;
24751;SDS011;27246;52.376;4.628;2023-04-24T00:09:29;1.88;;;1.00;;
24751;SDS011;27246;52.376;4.628;2023-04-24T00:14:31;2.63;;;0.90;;
24751;SDS011;27246;52.376;4.628;2023-04-24T00:19:33;1.27;;;0.70;;
24751;SDS011;27246;52.376;4.628;2023-04-24T00:24:35;1.52;;;0.80;;
24751;SDS011;27246;52.376;4.628;2023-04-24T00:29:37;2.65;;;0.90;;
24751;SDS011;27246;52.376;4.628;2023-04-24T00:34:38;2.58;;;1.00;;
24751;SDS011;27246;52.376;4.628;2023-04-24T00:39:40;1.98;;;1.00;;
24751;SDS011;27246;52.376;4.628;2023-04-24T00:44:45;1.60;;;0.90;;
24751;SDS011;27246;52.376;4.628;2023-04-24T00:49:47;0.70;;;0.70;;
24751;SDS011;27246;52.376;4.628;2023-04-24T00:54:48;1.42;;;0.70;;
24751;SDS011;27246;52.376;4.628;2023-04-24T00:59:50;1.75;;;0.68;;
24751;SDS011;27246;52.376;4.628;2023-04-24T01:04:53;2.53;;;0.60;;
24751;SDS011;27246;52.376;4.628;2023-04-24T01:09:55;2.55;;;0.80;;
24751;SDS011;27246;52.376;4.628;2023-04-24T01:14:58;2.47;;;0.70;;
24751;SDS011;27246;52.376;4.628;2023-04-24T01:20:00;6.60;;;1.00;;
24751;SDS011;27246;52.376;4.628;2023-04-24T01:25:06;5.32;;;1.00;;
24751;SDS011;27246;52.376;4.628;2023-04-24T01:30:09;2.47;;;0.90;;
24751;SDS011;27246;52.376;4.628;2023-04-24T01:35:12;4.30;;;0.68;;
24751;SDS011;27246;52.376;4.628;2023-04-24T01:40:14;2.95;;;0.93;;
24751;SDS011;27246;52.376;4.628;2023-04-24T01:45:15;1.08;;;0.38;;
24751;SDS011;27246;52.376;4.628;2023-04-24T01:50:17;1.63;;;0.50;;
24751;SDS011;27246;52.376;4.628;2023-04-24T01:55:19;2.90;;;0.47;;
24751;SDS011;27246;52.376;4.628;2023-04-24T02:00:21;1.55;;;0.40;;
24751;SDS011;27246;52.376;4.628;2023-04-24T02:05:23;1.58;;;0.40;;
24751;SDS011;27246;52.376;4.628;2023-04-24T02:10:25;0.32;;;0.20;;
24751;SDS011;27246;52.376;4.628;2023-04-24T02:15:27;1.33;;;0.25;;
24751;SDS011;27246;52.376;4.628;2023-04-24T02:20:30;0.73;;;0.10;;
24751;SDS011;27246;52.376;4.628;2023-04-24T02:25:33;0.17;;;0.17;;
24751;SDS011;27246;52.376;4.628;2023-04-24T02:30:35;0.75;;;0.25;;
24751;SDS011;27246;52.376;4.628;2023-04-24T02:35:36;0.40;;;0.10;;
24751;SDS011;27246;52.376;4.628;2023-04-24T02:40:38;0.20;;;0.10;;
24751;SDS011;27246;52.376;4.628;2023-04-24T02:45:40;2.25;;;0.30;;
24751;SDS011;27246;52.376;4.628;2023-04-24T02:50:44;2.17;;;0.38;;
24751;SDS011;27246;52.376;4.628;2023-04-24T02:55:45;2.15;;;0.38;;
24751;SDS011;27246;52.376;4.628;2023-04-24T03:00:48;1.13;;;0.45;;
24751;SDS011;27246;52.376;4.628;2023-04-24T03:05:49;1.52;;;0.70;;
24751;SDS011;27246;52.376;4.628;2023-04-24T03:10:51;1.65;;;0.50;;
24751;SDS011;27246;52.376;4.628;2023-04-24T03:15:56;2.72;;;0.57;;
24751;SDS011;27246;52.376;4.628;2023-04-24T03:20:58;1.48;;;0.40;;
24751;SDS011;27246;52.376;4.628;2023-04-24T03:26:00;2.72;;;0.40;;
24751;SDS011;27246;52.376;4.628;2023-04-24T03:31:02;0.70;;;0.30;;
24751;SDS011;27246;52.376;4.628;2023-04-24T03:36:10;1.90;;;0.30;;
24751;SDS011;27246;52.376;4.628;2023-04-24T03:41:14;1.45;;;0.30;;
24751;SDS011;27246;52.376;4.628;2023-04-24T03:46:20;2.63;;;0.55;;
24751;SDS011;27246;52.376;4.628;2023-04-24T03:51:28;3.85;;;0.50;;
24751;SDS011;27246;52.376;4.628;2023-04-24T03:56:38;0.57;;;0.20;;
24751;SDS011;27246;52.376;4.628;2023-04-24T04:01:41;1.85;;;0.30;;
24751;SDS011;27246;52.376;4.628;2023-04-24T04:06:48;1.17;;;0.30;;
24751;SDS011;27246;52.376;4.628;2023-04-24T04:11:50;2.28;;;0.70;;
24751;SDS011;27246;52.376;4.628;2023-04-24T04:16:52;2.95;;;0.43;;
24751;SDS011;27246;52.376;4.628;2023-04-24T04:21:55;0.55;;;0.40;;
24751;SDS011;27246;52.376;4.628;2023-04-24T04:27:14;2.38;;;0.70;;
24751;SDS011;27246;52.376;4.628;2023-04-24T04:37:26;1.88;;;0.40;;
24751;SDS011;27246;52.376;4.628;2023-04-24T04:42:44;0.95;;;0.82;;
24751;SDS011;27246;52.376;4.628;2023-04-24T04:47:48;1.02;;;0.50;;
24751;SDS011;27246;52.376;4.628;2023-04-24T04:52:50;2.20;;;1.27;;
24751;SDS011;27246;52.376;4.628;2023-04-24T04:57:59;2.87;;;1.20;;
24751;SDS011;27246;52.376;4.628;2023-04-24T05:03:02;2.33;;;2.13;;
24751;SDS011;27246;52.376;4.628;2023-04-24T05:08:20;5.75;;;3.55;;
24751;SDS011;27246;52.376;4.628;2023-04-24T05:13:25;8.07;;;5.88;;
24751;SDS011;27246;52.376;4.628;2023-04-24T05:23:51;12.60;;;6.03;;
24751;SDS011;27246;52.376;4.628;2023-04-24T05:29:05;9.27;;;6.03;;
24751;SDS011;27246;52.376;4.628;2023-04-24T05:34:07;10.40;;;5.38;;
24751;SDS011;27246;52.376;4.628;2023-04-24T05:39:14;12.77;;;6.00;;
24751;SDS011;27246;52.376;4.628;2023-04-24T05:44:16;7.38;;;3.67;;
24751;SDS011;27246;52.376;4.628;2023-04-24T05:49:18;10.63;;;4.80;;
24751;SDS011;27246;52.376;4.628;2023-04-24T05:54:20;9.27;;;4.22;;
24751;SDS011;27246;52.376;4.628;2023-04-24T05:59:22;10.27;;;4.07;;
24751;SDS011;27246;52.376;4.628;2023-04-24T06:04:25;8.75;;;5.55;;
24751;SDS011;27246;52.376;4.628;2023-04-24T06:09:27;8.73;;;4.47;;
24751;SDS011;27246;52.376;4.628;2023-04-24T06:14:29;11.65;;;4.30;;
24751;SDS011;27246;52.376;4.628;2023-04-24T06:19:47;14.27;;;4.05;;
24751;SDS011;27246;52.376;4.628;2023-04-24T06:24:49;11.45;;;4.47;;
24751;SDS011;27246;52.376;4.628;2023-04-24T06:29:51;12.18;;;3.70;;
24751;SDS011;27246;52.376;4.628;2023-04-24T06:34:55;15.43;;;4.75;;
24751;SDS011;27246;52.376;4.628;2023-04-24T06:39:59;13.73;;;2.97;;
24751;SDS011;27246;52.376;4.628;2023-04-24T06:45:01;10.80;;;4.45;;
24751;SDS011;27246;52.376;4.628;2023-04-24T06:50:04;11.00;;;3.25;;
24751;SDS011;27246;52.376;4.628;2023-04-24T06:55:07;14.25;;;4.25;;
24751;SDS011;27246;52.376;4.628;2023-04-24T07:00:09;14.80;;;3.92;;
24751;SDS011;27246;52.376;4.628;2023-04-24T07:05:11;8.73;;;3.35;;
24751;SDS011;27246;52.376;4.628;2023-04-24T07:10:16;11.15;;;2.35;;
24751;SDS011;27246;52.376;4.628;2023-04-24T07:15:19;11.27;;;3.53;;
24751;SDS011;27246;52.376;4.628;2023-04-24T07:20:21;10.45;;;3.05;;
24751;SDS011;27246;52.376;4.628;2023-04-24T07:25:23;12.18;;;2.60;;
24751;SDS011;27246;52.376;4.628;2023-04-24T07:30:25;10.43;;;2.75;;
24751;SDS011;27246;52.376;4.628;2023-04-24T07:35:36;8.50;;;1.98;;
24751;SDS011;27246;52.376;4.628;2023-04-24T07:40:38;6.30;;;2.55;;
24751;SDS011;27246;52.376;4.628;2023-04-24T07:45:39;7.72;;;2.80;;
24751;SDS011;27246;52.376;4.628;2023-04-24T07:50:43;9.98;;;1.90;;
24751;SDS011;27246;52.376;4.628;2023-04-24T07:55:45;4.90;;;2.33;;
24751;SDS011;27246;52.376;4.628;2023-04-24T08:00:47;10.90;;;2.65;;
24751;SDS011;27246;52.376;4.628;2023-04-24T08:05:49;6.30;;;2.63;;
24751;SDS011;27246;52.376;4.628;2023-04-24T08:10:52;7.88;;;2.20;;
24751;SDS011;27246;52.376;4.628;2023-04-24T08:15:54;13.95;;;3.67;;
24751;SDS011;27246;52.376;4.628;2023-04-24T08:20:55;15.73;;;3.88;;
24751;SDS011;27246;52.376;4.628;2023-04-24T08:26:02;9.70;;;2.60;;
24751;SDS011;27246;52.376;4.628;2023-04-24T08:31:04;4.95;;;2.58;;
24751;SDS011;27246;52.376;4.628;2023-04-24T08:36:06;8.60;;;2.20;;
24751;SDS011;27246;52.376;4.628;2023-04-24T08:41:09;8.48;;;2.58;;
24751;SDS011;27246;52.376;4.628;2023-04-24T08:46:13;8.30;;;2.13;;
24751;SDS011;27246;52.376;4.628;2023-04-24T08:51:17;8.75;;;2.22;;
24751;SDS011;27246;52.376;4.628;2023-04-24T08:56:19;9.38;;;2.70;;
24751;SDS011;27246;52.376;4.628;2023-04-24T09:01:24;7.68;;;2.53;;
24751;SDS011;27246;52.376;4.628;2023-04-24T09:06:26;7.65;;;2.20;;
24751;SDS011;27246;52.376;4.628;2023-04-24T09:11:30;6.45;;;2.25;;
24751;SDS011;27246;52.376;4.628;2023-04-24T09:16:33;5.00;;;0.88;;
24751;SDS011;27246;52.376;4.628;2023-04-24T09:21:38;7.93;;;1.90;;
24751;SDS011;27246;52.376;4.628;2023-04-24T09:26:47;5.35;;;1.48;;
24751;SDS011;27246;52.376;4.628;2023-04-24T09:31:50;8.38;;;1.55;;
24751;SDS011;27246;52.376;4.628;2023-04-24T09:36:52;6.03;;;1.10;;
24751;SDS011;27246;52.376;4.628;2023-04-24T09:41:55;3.45;;;1.50;;
24751;SDS011;27246;52.376;4.628;2023-04-24T09:47:02;7.35;;;1.77;;
24751;SDS011;27246;52.376;4.628;2023-04-24T09:52:07;5.60;;;1.33;;
24751;SDS011;27246;52.376;4.628;2023-04-24T09:57:11;5.78;;;1.30;;
24751;SDS011;27246;52.376;4.628;2023-04-24T10:02:19;6.32;;;1.38;;
24751;SDS011;27246;52.376;4.628;2023-04-24T10:07:21;7.95;;;1.75;;
24751;SDS011;27246;52.376;4.628;2023-04-24T10:12:24;5.82;;;1.05;;
24751;SDS011;27246;52.376;4.628;2023-04-24T10:17:26;4.70;;;0.80;;
24751;SDS011;27246;52.376;4.628;2023-04-24T10:22:29;4.32;;;1.05;;
24751;SDS011;27246;52.376;4.628;2023-04-24T10:27:31;6.57;;;1.27;;
24751;SDS011;27246;52.376;4.628;2023-04-24T10:32:33;4.10;;;1.20;;
24751;SDS011;27246;52.376;4.628;2023-04-24T10:37:36;2.80;;;0.90;;
24751;SDS011;27246;52.376;4.628;2023-04-24T10:42:41;6.05;;;1.33;;
24751;SDS011;27246;52.376;4.628;2023-04-24T10:48:02;2.50;;;1.02;;
24751;SDS011;27246;52.376;4.628;2023-04-24T10:53:12;4.18;;;1.33;;
24751;SDS011;27246;52.376;4.628;2023-04-24T10:58:16;6.82;;;1.55;;
24751;SDS011;27246;52.376;4.628;2023-04-24T11:03:24;4.68;;;1.15;;
24751;SDS011;27246;52.376;4.628;2023-04-24T11:08:28;4.45;;;1.10;;
24751;SDS011;27246;52.376;4.628;2023-04-24T11:19:00;5.43;;;1.58;;
24751;SDS011;27246;52.376;4.628;2023-04-24T11:24:21;7.97;;;1.60;;
24751;SDS011;27246;52.376;4.628;2023-04-24T11:29:41;5.78;;;1.67;;
24751;SDS011;27246;52.376;4.628;2023-04-24T11:34:45;7.40;;;2.10;;
24751;SDS011;27246;52.376;4.628;2023-04-24T11:39:56;9.20;;;2.45;;
24751;SDS011;27246;52.376;4.628;2023-04-24T11:45:00;6.97;;;2.08;;
24751;SDS011;27246;52.376;4.628;2023-04-24T11:50:04;10.98;;;2.53;;
24751;SDS011;27246;52.376;4.628;2023-04-24T11:55:30;12.00;;;2.63;;
24751;SDS011;27246;52.376;4.628;2023-04-24T12:00:31;11.30;;;2.65;;
24751;SDS011;27246;52.376;4.628;2023-04-24T12:05:35;16.10;;;4.20;;
24751;SDS011;27246;52.376;4.628;2023-04-24T12:10:38;11.55;;;3.83;;
24751;SDS011;27246;52.376;4.628;2023-04-24T12:15:40;13.40;;;2.83;;
24751;SDS011;27246;52.376;4.628;2023-04-24T12:20:43;10.77;;;3.63;;
24751;SDS011;27246;52.376;4.628;2023-04-24T12:25:45;10.55;;;3.35;;
24751;SDS011;27246;52.376;4.628;2023-04-24T12:30:47;16.65;;;3.05;;
24751;SDS011;27246;52.376;4.628;2023-04-24T12:35:53;14.82;;;3.40;;
24751;SDS011;27246;52.376;4.628;2023-04-24T12:41:02;10.68;;;3.00;;
24751;SDS011;27246;52.376;4.628;2023-04-24T12:51:07;10.55;;;4.18;;
24751;SDS011;27246;52.376;4.628;2023-04-24T12:56:18;13.38;;;3.47;;
24751;SDS011;27246;52.376;4.628;2023-04-24T13:01:19;12.43;;;2.88;;
24751;SDS011;27246;52.376;4.628;2023-04-24T13:06:21;8.80;;;2.97;;
24751;SDS011;27246;52.376;4.628;2023-04-24T13:11:23;7.60;;;3.40;;
24751;SDS011;27246;52.376;4.628;2023-04-24T13:16:25;18.55;;;4.03;;
24751;SDS011;27246;52.376;4.628;2023-04-24T13:21:27;8.07;;;2.42;;
24751;SDS011;27246;52.376;4.628;2023-04-24T13:26:31;10.18;;;2.90;;
24751;SDS011;27246;52.376;4.628;2023-04-24T13:31:33;9.73;;;2.65;;
24751;SDS011;27246;52.376;4.628;2023-04-24T13:36:34;13.85;;;3.53;;
24751;SDS011;27246;52.376;4.628;2023-04-24T13:41:36;13.65;;;2.75;;
24751;SDS011;27246;52.376;4.628;2023-04-24T13:46:38;7.68;;;2.60;;
24751;SDS011;27246;52.376;4.628;2023-04-24T13:51:42;10.65;;;2.60;;
24751;SDS011;27246;52.376;4.628;2023-04-24T13:56:44;9.65;;;3.15;;
24751;SDS011;27246;52.376;4.628;2023-04-24T14:01:46;10.43;;;2.70;;
24751;SDS011;27246;52.376;4.628;2023-04-24T14:06:49;8.30;;;2.95;;
24751;SDS011;27246;52.376;4.628;2023-04-24T14:11:51;10.88;;;3.17;;
24751;SDS011;27246;52.376;4.628;2023-04-24T14:16:53;9.52;;;3.80;;
24751;SDS011;27246;52.376;4.628;2023-04-24T14:21:55;15.70;;;3.67;;
24751;SDS011;27246;52.376;4.628;2023-04-24T14:26:58;11.20;;;3.97;;
24751;SDS011;27246;52.376;4.628;2023-04-24T14:31:59;13.27;;;3.63;;
24751;SDS011;27246;52.376;4.628;2023-04-24T14:37:01;14.57;;;4.32;;
24751;SDS011;27246;52.376;4.628;2023-04-24T14:42:03;11.20;;;3.75;;
24751;SDS011;27246;52.376;4.628;2023-04-24T14:47:05;14.43;;;4.10;;
24751;SDS011;27246;52.376;4.628;2023-04-24T14:52:07;12.02;;;3.10;;
24751;SDS011;27246;52.376;4.628;2023-04-24T14:57:08;10.40;;;3.50;;
24751;SDS011;27246;52.376;4.628;2023-04-24T15:02:10;9.73;;;3.42;;
24751;SDS011;27246;52.376;4.628;2023-04-24T15:07:16;10.77;;;3.50;;
24751;SDS011;27246;52.376;4.628;2023-04-24T15:12:20;14.05;;;3.65;;
24751;SDS011;27246;52.376;4.628;2023-04-24T15:17:22;11.77;;;3.15;;
24751;SDS011;27246;52.376;4.628;2023-04-24T15:22:24;7.90;;;3.05;;
24751;SDS011;27246;52.376;4.628;2023-04-24T15:27:27;9.43;;;2.97;;
24751;SDS011;27246;52.376;4.628;2023-04-24T15:32:29;12.50;;;3.40;;
24751;SDS011;27246;52.376;4.628;2023-04-24T15:37:30;13.45;;;2.88;;
24751;SDS011;27246;52.376;4.628;2023-04-24T15:42:32;13.13;;;2.85;;
24751;SDS011;27246;52.376;4.628;2023-04-24T15:47:34;7.32;;;2.78;;
24751;SDS011;27246;52.376;4.628;2023-04-24T15:52:36;9.45;;;2.97;;
24751;SDS011;27246;52.376;4.628;2023-04-24T15:57:38;8.57;;;3.05;;
24751;SDS011;27246;52.376;4.628;2023-04-24T16:02:43;9.93;;;2.80;;
24751;SDS011;27246;52.376;4.628;2023-04-24T16:07:45;11.23;;;3.13;;
24751;SDS011;27246;52.376;4.628;2023-04-24T16:12:48;9.32;;;2.85;;
24751;SDS011;27246;52.376;4.628;2023-04-24T16:17:51;26.63;;;4.03;;
24751;SDS011;27246;52.376;4.628;2023-04-24T16:22:53;7.70;;;3.15;;
24751;SDS011;27246;52.376;4.628;2023-04-24T16:27:55;9.10;;;3.47;;
24751;SDS011;27246;52.376;4.628;2023-04-24T16:32:57;10.02;;;3.45;;
24751;SDS011;27246;52.376;4.628;2023-04-24T16:37:59;7.43;;;2.45;;
24751;SDS011;27246;52.376;4.628;2023-04-24T16:43:02;13.63;;;3.72;;
24751;SDS011;27246;52.376;4.628;2023-04-24T16:48:04;9.55;;;3.33;;
24751;SDS011;27246;52.376;4.628;2023-04-24T16:53:06;10.30;;;3.20;;
24751;SDS011;27246;52.376;4.628;2023-04-24T16:58:07;11.63;;;2.55;;
24751;SDS011;27246;52.376;4.628;2023-04-24T17:03:09;13.68;;;5.47;;
24751;SDS011;27246;52.376;4.628;2023-04-24T17:08:13;8.75;;;2.85;;
24751;SDS011;27246;52.376;4.628;2023-04-24T17:13:15;10.35;;;3.00;;
24751;SDS011;27246;52.376;4.628;2023-04-24T17:18:16;14.68;;;3.15;;
24751;SDS011;27246;52.376;4.628;2023-04-24T17:23:19;9.82;;;2.20;;
24751;SDS011;27246;52.376;4.628;2023-04-24T17:28:28;14.38;;;3.50;;
24751;SDS011;27246;52.376;4.628;2023-04-24T17:33:31;8.45;;;2.15;;
24751;SDS011;27246;52.376;4.628;2023-04-24T17:38:33;6.03;;;1.80;;
24751;SDS011;27246;52.376;4.628;2023-04-24T17:43:35;4.55;;;1.65;;
24751;SDS011;27246;52.376;4.628;2023-04-24T17:48:38;6.93;;;1.65;;
24751;SDS011;27246;52.376;4.628;2023-04-24T17:53:40;6.38;;;1.23;;
24751;SDS011;27246;52.376;4.628;2023-04-24T17:58:43;4.00;;;1.30;;
24751;SDS011;27246;52.376;4.628;2023-04-24T18:03:45;3.95;;;1.40;;
24751;SDS011;27246;52.376;4.628;2023-04-24T18:08:47;3.40;;;1.15;;
24751;SDS011;27246;52.376;4.628;2023-04-24T18:13:49;7.50;;;1.20;;
24751;SDS011;27246;52.376;4.628;2023-04-24T18:18:51;4.60;;;1.13;;
24751;SDS011;27246;52.376;4.628;2023-04-24T18:23:54;5.60;;;1.65;;
24751;SDS011;27246;52.376;4.628;2023-04-24T18:28:56;4.60;;;0.98;;
24751;SDS011;27246;52.376;4.628;2023-04-24T18:33:57;7.90;;;1.90;;
24751;SDS011;27246;52.376;4.628;2023-04-24T18:38:59;5.70;;;1.20;;
24751;SDS011;27246;52.376;4.628;2023-04-24T18:44:01;3.33;;;1.10;;
24751;SDS011;27246;52.376;4.628;2023-04-24T18:49:02;4.38;;;1.05;;
24751;SDS011;27246;52.376;4.628;2023-04-24T18:54:04;3.47;;;1.02;;
24751;SDS011;27246;52.376;4.628;2023-04-24T18:59:06;4.50;;;1.13;;
24751;SDS011;27246;52.376;4.628;2023-04-24T19:04:08;6.78;;;1.95;;
24751;SDS011;27246;52.376;4.628;2023-04-24T19:09:09;3.00;;;0.90;;
24751;SDS011;27246;52.376;4.628;2023-04-24T19:14:11;3.90;;;0.80;;
24751;SDS011;27246;52.376;4.628;2023-04-24T19:19:16;9.57;;;1.88;;
24751;SDS011;27246;52.376;4.628;2023-04-24T19:24:18;5.60;;;1.77;;
24751;SDS011;27246;52.376;4.628;2023-04-24T19:29:21;5.03;;;1.70;;
24751;SDS011;27246;52.376;4.628;2023-04-24T19:34:23;7.13;;;1.25;;
24751;SDS011;27246;52.376;4.628;2023-04-24T19:39:25;7.60;;;2.17;;
24751;SDS011;27246;52.376;4.628;2023-04-24T19:44:27;4.95;;;1.45;;
24751;SDS011;27246;52.376;4.628;2023-04-24T19:49:29;4.55;;;1.55;;
24751;SDS011;27246;52.376;4.628;2023-04-24T19:54:31;5.20;;;1.60;;
24751;SDS011;27246;52.376;4.628;2023-04-24T19:59:32;7.50;;;1.70;;
24751;SDS011;27246;52.376;4.628;2023-04-24T20:04:34;6.13;;;1.63;;
24751;SDS011;27246;52.376;4.628;2023-04-24T20:09:36;3.20;;;1.20;;
24751;SDS011;27246;52.376;4.628;2023-04-24T20:14:38;2.33;;;0.95;;
24751;SDS011;27246;52.376;4.628;2023-04-24T20:19:40;3.72;;;1.08;;
24751;SDS011;27246;52.376;4.628;2023-04-24T20:24:45;5.07;;;1.83;;
24751;SDS011;27246;52.376;4.628;2023-04-24T20:29:46;8.02;;;2.55;;
24751;SDS011;27246;52.376;4.628;2023-04-24T20:34:48;8.88;;;2.60;;
24751;SDS011;27246;52.376;4.628;2023-04-24T20:39:50;12.65;;;3.13;;
24751;SDS011;27246;52.376;4.628;2023-04-24T20:44:52;5.75;;;2.13;;
24751;SDS011;27246;52.376;4.628;2023-04-24T20:49:53;8.73;;;2.40;;
24751;SDS011;27246;52.376;4.628;2023-04-24T20:54:55;6.85;;;2.85;;
24751;SDS011;27246;52.376;4.628;2023-04-24T20:59:57;7.97;;;1.85;;
24751;SDS011;27246;52.376;4.628;2023-04-24T21:04:59;4.80;;;2.28;;
24751;SDS011;27246;52.376;4.628;2023-04-24T21:10:04;9.25;;;2.28;;
24751;SDS011;27246;52.376;4.628;2023-04-24T21:15:06;12.00;;;2.70;;
24751;SDS011;27246;52.376;4.628;2023-04-24T21:20:08;7.18;;;2.10;;
24751;SDS011;27246;52.376;4.628;2023-04-24T21:25:10;8.52;;;2.78;;
24751;SDS011;27246;52.376;4.628;2023-04-24T21:30:13;10.23;;;3.17;;
24751;SDS011;27246;52.376;4.628;2023-04-24T21:35:15;9.38;;;2.72;;
24751;SDS011;27246;52.376;4.628;2023-04-24T21:40:17;9.82;;;3.35;;
24751;SDS011;27246;52.376;4.628;2023-04-24T21:45:18;12.00;;;3.35;;
24751;SDS011;27246;52.376;4.628;2023-04-24T21:50:20;7.82;;;2.60;;
24751;SDS011;27246;52.376;4.628;2023-04-24T21:55:22;9.23;;;2.80;;
24751;SDS011;27246;52.376;4.628;2023-04-24T22:00:24;15.38;;;3.15;;
24751;SDS011;27246;52.376;4.628;2023-04-24T22:05:26;8.95;;;3.08;;
24751;SDS011;27246;52.376;4.628;2023-04-24T22:10:28;11.93;;;3.40;;
24751;SDS011;27246;52.376;4.628;2023-04-24T22:15:29;13.07;;;2.90;;
24751;SDS011;27246;52.376;4.628;2023-04-24T22:20:31;13.45;;;3.30;;
24751;SDS011;27246;52.376;4.628;2023-04-24T22:25:33;11.93;;;3.13;;
24751;SDS011;27246;52.376;4.628;2023-04-24T22:30:35;10.40;;;2.70;;
24751;SDS011;27246;52.376;4.628;2023-04-24T22:35:37;11.70;;;3.60;;
24751;SDS011;27246;52.376;4.628;2023-04-24T22:40:39;9.70;;;2.90;;
24751;SDS011;27246;52.376;4.628;2023-04-24T22:45:42;9.88;;;3.28;;
24751;SDS011;27246;52.376;4.628;2023-04-24T22:50:44;9.77;;;3.05;;
24751;SDS011;27246;52.376;4.628;2023-04-24T22:55:46;12.65;;;3.33;;
24751;SDS011;27246;52.376;4.628;2023-04-24T23:00:47;7.82;;;2.80;;
24751;SDS011;27246;52.376;4.628;2023-04-24T23:05:49;10.88;;;2.67;;
24751;SDS011;27246;52.376;4.628;2023-04-24T23:10:51;6.60;;;2.20;;
24751;SDS011;27246;52.376;4.628;2023-04-24T23:15:53;8.23;;;2.72;;
24751;SDS011;27246;52.376;4.628;2023-04-24T23:20:55;4.80;;;2.40;;
24751;SDS011;27246;52.376;4.628;2023-04-24T23:25:57;9.45;;;2.55;;
24751;SDS011;27246;52.376;4.628;2023-04-24T23:31:00;9.45;;;2.53;;
24751;SDS011;27246;52.376;4.628;2023-04-24T23:36:01;8.10;;;2.72;;
24751;SDS011;27246;52.376;4.628;2023-04-24T23:41:03;9.57;;;2.90;;
24751;SDS011;27246;52.376;4.628;2023-04-24T23:46:05;6.90;;;1.83;;
24751;SDS011;27246;52.376;4.628;2023-04-24T23:51:07;7.72;;;1.75;;
24751;SDS011;27246;52.376;4.628;2023-04-24T23:56:09;5.93;;;1.98;;
